Time;durP1;ratioP1;P1;durP2;ratioP2;P2;SDS_P1;SDS_P2;PMS_P1;PMS_P2;Temp;Humidity;BMP_temperature;BMP_pressure;BME280_temperature;BME280_humidity;BME280_pressure;Samples;Min_cycle;Max_cycle;Signal;HPM_P1;HPM_P2
2023/12/05 00:00:18;;;;;;;9.57;5.63;;;1.20;99.90;;;;;;2037997;28;20233;-81
2023/12/05 00:01:19;;;;;;;10.23;6.27;;;1.10;99.90;;;;;;2060638;28;20232;-81
2023/12/05 00:02:19;;;;;;;5.67;4.20;;;1.10;99.90;;;;;;2025582;28;20236;-81
2023/12/05 00:03:20;;;;;;;9.00;5.00;;;1.10;99.90;;;;;;2055232;28;20603;-82
2023/12/05 00:04:21;;;;;;;7.90;5.07;;;1.00;99.90;;;;;;2031540;28;20239;-83
2023/12/05 00:05:21;;;;;;;9.13;5.63;;;1.00;99.90;;;;;;2035319;28;20246;-83
2023/12/05 00:06:22;;;;;;;8.17;4.63;;;1.00;99.90;;;;;;2050382;28;20242;-81
2023/12/05 00:07:25;;;;;;;8.30;4.50;;;1.00;99.90;;;;;;2058244;28;20241;-82
2023/12/05 00:08:26;;;;;;;7.93;5.00;;;1.00;99.90;;;;;;2031920;29;20228;-82
2023/12/05 00:09:26;;;;;;;9.83;6.37;;;1.00;99.90;;;;;;2023864;29;20239;-81
2023/12/05 00:10:27;;;;;;;8.33;5.70;;;1.00;99.90;;;;;;2035507;29;20236;-82
2023/12/05 00:11:27;;;;;;;7.47;4.87;;;0.90;99.90;;;;;;2038794;29;20236;-82
2023/12/05 00:12:28;;;;;;;8.20;5.47;;;0.80;99.90;;;;;;2037896;29;20242;-81
2023/12/05 00:13:29;;;;;;;6.90;4.53;;;0.90;99.90;;;;;;2053796;28;20232;-83
2023/12/05 00:14:32;;;;;;;8.67;5.50;;;0.90;99.90;;;;;;2036614;28;20239;-82
2023/12/05 00:15:32;;;;;;;8.05;5.05;;;0.90;99.90;;;;;;2024311;29;20815;-83
2023/12/05 00:16:33;;;;;;;7.67;5.33;;;0.90;99.90;;;;;;2028903;29;20242;-82
2023/12/05 00:17:34;;;;;;;8.40;5.73;;;0.90;99.90;;;;;;2031526;29;20716;-83
2023/12/05 00:18:36;;;;;;;6.10;4.20;;;1.00;99.90;;;;;;2031630;28;20235;-82
2023/12/05 00:19:37;;;;;;;6.50;4.75;;;1.00;99.90;;;;;;2031868;29;20256;-82
2023/12/05 00:20:37;;;;;;;7.70;5.17;;;1.00;99.90;;;;;;2024103;29;20234;-82
2023/12/05 00:21:38;;;;;;;8.63;4.90;;;1.10;99.90;;;;;;2018954;29;20232;-82
2023/12/05 00:22:39;;;;;;;7.47;5.17;;;1.00;99.90;;;;;;2023149;28;20711;-82
2023/12/05 00:23:39;;;;;;;7.20;4.30;;;1.00;99.90;;;;;;2031666;28;20227;-81
2023/12/05 00:24:42;;;;;;;7.87;5.30;;;1.00;99.90;;;;;;2077522;28;20230;-82
2023/12/05 00:25:43;;;;;;;6.50;4.53;;;1.00;99.90;;;;;;2031531;29;20227;-81
2023/12/05 00:26:44;;;;;;;7.80;5.30;;;1.00;99.90;;;;;;2023531;29;20265;-82
2023/12/05 00:27:44;;;;;;;6.93;4.97;;;1.10;99.90;;;;;;2027509;29;20237;-82
2023/12/05 00:28:45;;;;;;;7.83;4.53;;;1.10;99.90;;;;;;2031888;29;20229;-82
2023/12/05 00:29:50;;;;;;;7.87;4.73;;;1.10;99.90;;;;;;2038938;29;20262;-81
2023/12/05 00:30:50;;;;;;;5.97;3.85;;;1.10;99.90;;;;;;2023134;29;20309;-81
2023/12/05 00:31:52;;;;;;;4.97;3.63;;;1.20;99.90;;;;;;2023837;29;20239;-82
2023/12/05 00:32:52;;;;;;;6.38;4.05;;;1.20;99.90;;;;;;2031290;29;20203;-81
2023/12/05 00:33:53;;;;;;;7.47;4.30;;;1.30;99.90;;;;;;2031560;29;20654;-82
2023/12/05 00:34:54;;;;;;;7.37;4.37;;;1.30;99.90;;;;;;2025433;29;20221;-80
2023/12/05 00:35:54;;;;;;;5.90;4.17;;;1.30;99.90;;;;;;2033579;29;20219;-81
2023/12/05 00:36:55;;;;;;;7.50;4.50;;;1.40;99.90;;;;;;2039546;28;20355;-81
2023/12/05 00:37:56;;;;;;;7.50;4.50;;;1.30;99.90;;;;;;2031746;29;20189;-82
2023/12/05 00:38:56;;;;;;;5.80;4.13;;;1.40;99.90;;;;;;2031493;28;20664;-82
2023/12/05 00:39:57;;;;;;;4.90;3.73;;;1.50;99.90;;;;;;2026334;28;20196;-83
2023/12/05 00:41:00;;;;;;;6.97;4.27;;;1.50;99.90;;;;;;2021839;28;20891;-82
2023/12/05 00:42:01;;;;;;;5.70;4.28;;;1.50;99.90;;;;;;2025624;28;20675;-83
2023/12/05 00:43:01;;;;;;;5.30;3.73;;;1.60;99.90;;;;;;2029469;28;20266;-83
2023/12/05 00:44:03;;;;;;;5.33;4.20;;;1.60;99.90;;;;;;2025067;29;20664;-81
2023/12/05 00:45:05;;;;;;;7.03;4.47;;;1.70;99.90;;;;;;2024573;28;20197;-82
2023/12/05 00:46:06;;;;;;;6.30;3.72;;;1.80;99.90;;;;;;2039365;28;20191;-82
2023/12/05 00:47:07;;;;;;;5.78;3.78;;;1.90;99.90;;;;;;2024537;28;20319;-83
2023/12/05 00:48:07;;;;;;;4.80;3.50;;;1.90;99.90;;;;;;2016850;29;20255;-83
2023/12/05 00:49:08;;;;;;;5.07;3.90;;;1.90;99.90;;;;;;2024644;29;20229;-82
2023/12/05 00:50:09;;;;;;;4.87;3.33;;;1.90;99.90;;;;;;2024532;28;20240;-81
2023/12/05 00:51:09;;;;;;;5.23;3.73;;;1.90;99.90;;;;;;2025189;28;20245;-82
2023/12/05 00:52:10;;;;;;;5.73;4.30;;;2.00;99.90;;;;;;2024321;28;20311;-81
2023/12/05 00:53:11;;;;;;;5.67;3.77;;;1.90;99.90;;;;;;2032132;29;20236;-81
2023/12/05 00:54:11;;;;;;;4.87;3.43;;;1.90;99.90;;;;;;2040565;29;20247;-82
2023/12/05 00:55:12;;;;;;;6.50;3.80;;;1.90;99.90;;;;;;2032567;29;20227;-82
2023/12/05 00:56:14;;;;;;;5.57;3.23;;;1.90;99.90;;;;;;2024678;29;20229;-82
2023/12/05 00:57:15;;;;;;;4.05;2.90;;;1.90;99.90;;;;;;2013733;28;20242;-81
2023/12/05 00:58:15;;;;;;;4.63;3.03;;;1.90;99.90;;;;;;2071940;28;20308;-80
2023/12/05 00:59:17;;;;;;;3.00;2.47;;;2.00;99.90;;;;;;2057671;28;20229;-82
2023/12/05 01:00:18;;;;;;;4.82;3.17;;;2.00;99.90;;;;;;2041782;28;20243;-82
2023/12/05 01:01:19;;;;;;;4.25;2.83;;;2.10;99.90;;;;;;2032772;28;20236;-83
2023/12/05 01:02:20;;;;;;;4.53;3.00;;;2.10;99.90;;;;;;2032184;28;20228;-83
2023/12/05 01:03:21;;;;;;;2.87;2.10;;;2.10;99.90;;;;;;2032865;29;20262;-81
2023/12/05 01:04:21;;;;;;;3.63;2.80;;;2.40;99.90;;;;;;2024778;29;20236;-82
2023/12/05 01:05:22;;;;;;;5.77;3.40;;;2.40;99.90;;;;;;2024778;29;20228;-81
2023/12/05 01:06:23;;;;;;;2.47;2.20;;;2.40;99.90;;;;;;2032375;29;20235;-83
2023/12/05 01:07:24;;;;;;;3.67;2.35;;;2.40;99.90;;;;;;2017807;28;20240;-81
2023/12/05 01:08:25;;;;;;;2.80;2.07;;;2.40;99.90;;;;;;2018053;28;20241;-81
2023/12/05 01:09:25;;;;;;;4.90;1.87;;;2.40;99.90;;;;;;2032377;29;20270;-82
2023/12/05 01:10:26;;;;;;;3.20;2.00;;;2.40;99.90;;;;;;2032238;29;20236;-82
2023/12/05 01:11:27;;;;;;;2.83;1.70;;;2.40;99.90;;;;;;2024551;29;20248;-82
2023/12/05 01:12:28;;;;;;;4.03;2.10;;;2.40;99.90;;;;;;2033883;28;20256;-81
2023/12/05 01:13:28;;;;;;;1.43;1.30;;;2.50;99.90;;;;;;2037439;29;20719;-82
2023/12/05 01:14:29;;;;;;;2.53;1.50;;;2.50;99.90;;;;;;2031581;29;20235;-82
2023/12/05 01:15:30;;;;;;;3.13;1.80;;;2.60;99.90;;;;;;2031381;29;20225;-81
2023/12/05 01:16:30;;;;;;;2.50;1.73;;;2.60;99.90;;;;;;2031825;28;20233;-81
2023/12/05 01:17:31;;;;;;;1.73;1.30;;;2.50;99.90;;;;;;2039561;29;20289;-80
2023/12/05 01:18:32;;;;;;;2.60;1.87;;;2.50;99.90;;;;;;2039804;29;20595;-81
2023/12/05 01:19:33;;;;;;;2.07;1.50;;;2.60;99.90;;;;;;2036391;29;20228;-82
2023/12/05 01:20:34;;;;;;;2.33;1.67;;;2.60;99.90;;;;;;2036064;28;20233;-81
2023/12/05 01:21:34;;;;;;;2.60;1.97;;;2.70;99.90;;;;;;2069835;28;20290;-82
2023/12/05 01:22:35;;;;;;;3.23;2.10;;;2.70;99.90;;;;;;2061892;28;20637;-83
2023/12/05 01:23:36;;;;;;;4.80;2.57;;;2.70;99.90;;;;;;2025172;29;20257;-83
2023/12/05 01:24:36;;;;;;;6.37;2.90;;;2.60;99.90;;;;;;2031628;29;20251;-82
2023/12/05 01:25:37;;;;;;;2.33;1.60;;;2.70;99.90;;;;;;2039755;29;20237;-83
2023/12/05 01:26:38;;;;;;;2.87;1.57;;;2.60;99.90;;;;;;2032096;29;20232;-83
2023/12/05 01:27:38;;;;;;;4.13;2.30;;;2.60;99.90;;;;;;2024458;29;20234;-82
2023/12/05 01:28:39;;;;;;;4.07;1.80;;;2.60;99.90;;;;;;2032435;28;20243;-82
2023/12/05 01:29:40;;;;;;;2.37;1.43;;;2.50;99.90;;;;;;2024380;29;20241;-82
2023/12/05 01:30:41;;;;;;;3.57;2.20;;;2.50;99.90;;;;;;2024313;29;20240;-82
2023/12/05 01:31:42;;;;;;;3.85;3.22;;;2.40;99.90;;;;;;2032247;29;20232;-83
2023/12/05 01:32:42;;;;;;;4.77;1.90;;;2.40;99.90;;;;;;2032334;28;20265;-82
2023/12/05 01:33:44;;;;;;;3.27;2.43;;;2.50;99.90;;;;;;2024556;29;20851;-81
2023/12/05 01:34:45;;;;;;;3.65;2.53;;;2.40;99.90;;;;;;2032444;29;20231;-82
2023/12/05 01:35:45;;;;;;;4.07;2.10;;;2.40;99.90;;;;;;2032161;29;20323;-81
2023/12/05 01:36:46;;;;;;;4.40;2.50;;;2.20;99.90;;;;;;2028005;28;20474;-81
2023/12/05 01:37:48;;;;;;;5.13;3.23;;;2.30;99.90;;;;;;2030422;28;20243;-82
2023/12/05 01:38:49;;;;;;;4.30;2.83;;;2.30;99.90;;;;;;2075251;28;20213;-82
2023/12/05 01:39:49;;;;;;;2.87;2.47;;;2.20;99.90;;;;;;2028241;29;20369;-82
2023/12/05 01:40:50;;;;;;;4.87;3.30;;;2.20;99.90;;;;;;2032913;29;20692;-83
2023/12/05 01:41:51;;;;;;;4.20;3.20;;;2.10;99.90;;;;;;2025278;29;20196;-82
2023/12/05 01:42:51;;;;;;;5.27;3.27;;;2.10;99.90;;;;;;2032929;29;20208;-81
2023/12/05 01:43:52;;;;;;;6.27;3.60;;;2.10;99.90;;;;;;2032807;29;20238;-82
2023/12/05 01:44:53;;;;;;;5.07;3.17;;;2.20;99.90;;;;;;2024537;28;20193;-81
2023/12/05 01:45:55;;;;;;;5.33;3.17;;;2.20;99.90;;;;;;2050388;28;20655;-82
2023/12/05 01:46:56;;;;;;;4.57;2.75;;;2.30;99.90;;;;;;2026192;28;20189;-81
2023/12/05 01:47:57;;;;;;;5.23;3.40;;;2.30;99.90;;;;;;2040795;28;20226;-82
2023/12/05 01:48:58;;;;;;;4.67;3.43;;;2.30;99.90;;;;;;2032375;28;20287;-83
2023/12/05 01:49:59;;;;;;;5.32;3.70;;;2.30;99.90;;;;;;2025063;29;20611;-82
2023/12/05 01:51:03;;;;;;;4.10;2.58;;;2.20;99.90;;;;;;2032349;29;20189;-82
2023/12/05 01:52:05;;;;;;;6.78;3.20;;;2.30;99.90;;;;;;2038829;28;20341;-81
2023/12/05 01:53:06;;;;;;;4.80;3.55;;;2.40;99.90;;;;;;2025005;29;20233;-82
2023/12/05 01:54:07;;;;;;;5.68;3.83;;;2.30;99.90;;;;;;2024744;29;20324;-81
2023/12/05 01:55:09;;;;;;;5.90;3.43;;;2.40;99.90;;;;;;2017043;28;20949;-82
2023/12/05 01:56:12;;;;;;;7.80;4.30;;;2.30;99.90;;;;;;2017885;28;20243;-81
2023/12/05 01:57:13;;;;;;;7.32;4.20;;;2.30;99.90;;;;;;2032232;29;20343;-82
2023/12/05 01:58:15;;;;;;;7.00;4.77;;;2.30;99.90;;;;;;2033123;29;20740;-82
2023/12/05 01:59:16;;;;;;;8.70;5.53;;;2.10;99.90;;;;;;2024774;29;20279;-82
2023/12/05 02:00:17;;;;;;;8.23;5.50;;;2.00;99.90;;;;;;2024767;29;20700;-83
2023/12/05 02:01:18;;;;;;;9.48;5.75;;;1.90;99.90;;;;;;2024015;28;20240;-81
2023/12/05 02:02:19;;;;;;;10.93;6.43;;;1.90;99.90;;;;;;2029531;28;20240;-82
2023/12/05 02:03:20;;;;;;;10.60;6.45;;;1.80;99.90;;;;;;2024384;29;20323;-82
2023/12/05 02:04:20;;;;;;;8.77;5.73;;;1.90;99.90;;;;;;2024044;29;20231;-81
2023/12/05 02:05:22;;;;;;;8.50;5.37;;;1.80;99.90;;;;;;2024736;28;20262;-82
2023/12/05 02:06:22;;;;;;;9.02;5.55;;;1.80;99.90;;;;;;2016577;28;20304;-82
2023/12/05 02:07:23;;;;;;;7.70;4.53;;;1.70;99.90;;;;;;2031933;28;20689;-82
2023/12/05 02:08:29;;;;;;;7.90;5.50;;;1.70;99.90;;;;;;2032283;29;20259;-81
2023/12/05 02:09:32;;;;;;;7.97;4.82;;;1.70;99.90;;;;;;2032876;29;20225;-82
2023/12/05 02:10:32;;;;;;;8.85;4.68;;;1.60;99.90;;;;;;2032633;29;20284;-82
2023/12/05 02:11:33;;;;;;;7.93;5.07;;;1.60;99.90;;;;;;2032785;29;20245;-81
2023/12/05 02:12:38;;;;;;;7.73;5.30;;;1.70;99.90;;;;;;2025320;29;20347;-82
2023/12/05 02:13:39;;;;;;;8.45;4.18;;;1.60;99.90;;;;;;2028366;29;20279;-82
2023/12/05 02:14:39;;;;;;;7.83;4.37;;;1.70;99.90;;;;;;2041597;28;20251;-85
2023/12/05 02:15:40;;;;;;;7.37;4.30;;;1.80;99.90;;;;;;2033094;29;20268;-85
2023/12/05 02:16:59;;;;;;;5.57;3.60;;;1.80;99.90;;;;;;2040930;28;20220;-84
2023/12/05 02:18:15;;;;;;;7.53;4.53;;;1.90;99.90;;;;;;2035128;28;20224;-84
2023/12/05 02:19:34;;;;;;;6.45;4.10;;;1.90;99.90;;;;;;2038012;28;20232;-83
2023/12/05 02:20:55;;;;;;;6.55;4.78;;;1.80;99.90;;;;;;2043635;28;20250;-84
2023/12/05 02:22:00;;;;;;;11.70;5.43;;;1.70;99.90;;;;;;2043328;28;20298;-83
2023/12/05 02:23:09;;;;;;;9.38;5.50;;;1.70;99.90;;;;;;2072197;28;20194;-84
2023/12/05 02:24:43;;;;;;;9.68;5.78;;;1.60;99.90;;;;;;2070080;28;20221;-83
2023/12/05 02:26:09;;;;;;;5.88;4.03;;;1.60;99.90;;;;;;2045263;28;20229;-84
2023/12/05 02:27:39;;;;;;;8.15;5.25;;;1.70;99.90;;;;;;2031981;29;20280;-84
2023/12/05 02:28:41;;;;;;;8.02;5.20;;;1.60;99.90;;;;;;2037282;28;20236;-83
2023/12/05 02:29:50;;;;;;;11.20;7.03;;;1.60;99.90;;;;;;2026007;28;20232;-85
2023/12/05 02:30:51;;;;;;;9.27;5.95;;;1.60;99.90;;;;;;2033199;28;20256;-84
2023/12/05 02:31:52;;;;;;;9.93;6.20;;;1.60;99.90;;;;;;2024787;28;20192;-84
2023/12/05 02:32:53;;;;;;;8.60;5.88;;;1.60;99.90;;;;;;2040512;28;20201;-84
2023/12/05 02:33:54;;;;;;;13.30;7.57;;;1.50;99.90;;;;;;2041043;28;20222;-84
2023/12/05 02:34:55;;;;;;;10.23;6.30;;;1.60;99.90;;;;;;2078005;28;20194;-84
2023/12/05 02:36:06;;;;;;;10.83;6.73;;;1.50;99.90;;;;;;2044082;28;20188;-84
2023/12/05 02:37:51;;;;;;;14.95;8.93;;;1.50;99.90;;;;;;2035085;29;20288;-84
2023/12/05 02:39:19;;;;;;;11.23;7.50;;;1.50;99.90;;;;;;2034731;29;20235;-81
2023/12/05 02:41:12;;;;;;;14.43;9.07;;;1.40;99.90;;;;;;2036008;29;20255;-82
2023/12/05 02:42:14;;;;;;;12.77;6.78;;;1.40;99.90;;;;;;2052938;28;20233;-81
2023/12/05 02:43:21;;;;;;;14.02;7.43;;;1.30;99.90;;;;;;2010456;29;20734;-81
2023/12/05 02:44:34;;;;;;;11.88;7.80;;;1.30;99.90;;;;;;2023157;28;20262;-81
2023/12/05 02:45:38;;;;;;;11.30;7.28;;;1.40;99.90;;;;;;2047312;28;20666;-82
2023/12/05 02:46:41;;;;;;;10.25;6.68;;;1.40;99.90;;;;;;2024869;29;20226;-81
2023/12/05 02:47:48;;;;;;;13.38;7.90;;;1.50;99.90;;;;;;2040219;29;20236;-81
2023/12/05 02:48:50;;;;;;;10.13;6.40;;;1.50;99.90;;;;;;2031344;29;20246;-82
2023/12/05 02:49:51;;;;;;;10.35;6.28;;;1.50;99.90;;;;;;2024372;29;20189;-81
2023/12/05 02:50:53;;;;;;;9.88;5.50;;;1.50;99.90;;;;;;2035130;29;20188;-82
2023/12/05 02:51:53;;;;;;;10.18;5.68;;;1.60;99.90;;;;;;2032169;29;20192;-83
2023/12/05 02:52:54;;;;;;;12.40;7.23;;;1.60;99.90;;;;;;2031736;29;20258;-83
2023/12/05 02:53:55;;;;;;;11.17;6.83;;;1.70;99.90;;;;;;2022159;29;20245;-82
2023/12/05 02:54:56;;;;;;;9.80;6.38;;;1.60;99.90;;;;;;2016444;29;20267;-82
2023/12/05 02:55:56;;;;;;;14.30;7.77;;;1.70;99.90;;;;;;2031767;29;20193;-82
2023/12/05 02:56:57;;;;;;;11.83;5.67;;;1.70;99.90;;;;;;2040250;29;20694;-83
2023/12/05 02:57:58;;;;;;;11.70;6.50;;;1.70;99.90;;;;;;2038587;29;20215;-83
2023/12/05 02:58:58;;;;;;;10.83;5.83;;;1.70;99.90;;;;;;2039695;29;20395;-82
2023/12/05 02:59:59;;;;;;;12.17;6.07;;;1.70;99.90;;;;;;2040079;29;20263;-84
2023/12/05 03:01:01;;;;;;;13.10;7.17;;;1.70;99.90;;;;;;2030642;29;20195;-83
2023/12/05 03:02:02;;;;;;;9.73;6.07;;;1.80;99.90;;;;;;2031901;29;20606;-83
2023/12/05 03:03:03;;;;;;;9.87;6.30;;;1.80;99.90;;;;;;2028723;29;20211;-82
2023/12/05 03:04:04;;;;;;;9.80;5.80;;;1.80;99.90;;;;;;2028256;28;20431;-82
2023/12/05 03:05:07;;;;;;;11.00;7.03;;;1.80;99.90;;;;;;2022674;29;20211;-82
2023/12/05 03:06:08;;;;;;;9.90;5.32;;;1.80;99.90;;;;;;2020972;28;20732;-82
2023/12/05 03:07:09;;;;;;;8.35;5.25;;;1.80;99.90;;;;;;2023909;28;20298;-82
2023/12/05 03:08:10;;;;;;;9.98;5.60;;;1.90;99.90;;;;;;2028521;28;20686;-82
2023/12/05 03:09:11;;;;;;;7.60;4.83;;;1.90;99.90;;;;;;2043580;28;20230;-83
2023/12/05 03:10:11;;;;;;;8.60;4.93;;;1.90;99.90;;;;;;2023011;28;20234;-83
2023/12/05 03:11:12;;;;;;;7.97;5.40;;;2.00;99.90;;;;;;2023382;29;20236;-81
2023/12/05 03:12:13;;;;;;;8.30;5.03;;;2.00;99.90;;;;;;2037161;29;20297;-82
2023/12/05 03:13:13;;;;;;;7.03;4.30;;;2.00;99.90;;;;;;2030070;29;20330;-83
2023/12/05 03:14:14;;;;;;;9.63;5.57;;;2.00;99.90;;;;;;2055897;28;20280;-84
2023/12/05 03:15:15;;;;;;;9.70;5.50;;;2.10;99.90;;;;;;2063221;28;20328;-82
2023/12/05 03:16:15;;;;;;;8.30;5.17;;;2.10;99.90;;;;;;2017766;28;20741;-83
2023/12/05 03:17:16;;;;;;;9.03;5.50;;;2.10;99.90;;;;;;2052568;28;20256;-83
2023/12/05 03:18:17;;;;;;;8.67;5.63;;;2.20;99.90;;;;;;2030836;28;20237;-83
2023/12/05 03:19:18;;;;;;;9.63;5.60;;;2.30;99.90;;;;;;2037034;28;20279;-83
2023/12/05 03:20:19;;;;;;;9.77;5.70;;;2.20;99.90;;;;;;2067859;28;20733;-82
2023/12/05 03:21:20;;;;;;;7.43;4.47;;;2.30;99.90;;;;;;2023581;28;20232;-82
2023/12/05 03:22:21;;;;;;;9.30;5.33;;;2.20;99.90;;;;;;2029026;28;20232;-84
2023/12/05 03:23:21;;;;;;;9.77;5.10;;;2.30;99.90;;;;;;2019695;28;20233;-82
2023/12/05 03:24:22;;;;;;;10.03;5.90;;;2.30;99.90;;;;;;2030031;28;20232;-83
2023/12/05 03:25:23;;;;;;;8.10;5.33;;;2.30;99.90;;;;;;2025237;28;20674;-82
2023/12/05 03:26:23;;;;;;;7.97;5.07;;;2.30;99.90;;;;;;2039780;29;20247;-82
2023/12/05 03:27:24;;;;;;;5.60;3.83;;;2.30;99.90;;;;;;2030102;29;20631;-81
2023/12/05 03:28:25;;;;;;;5.57;3.67;;;2.30;99.90;;;;;;2025748;28;20240;-81
2023/12/05 03:29:25;;;;;;;7.63;5.07;;;2.30;99.90;;;;;;2023373;28;20632;-83
2023/12/05 03:30:26;;;;;;;7.90;4.03;;;2.20;99.90;;;;;;2038027;29;20626;-82
2023/12/05 03:31:27;;;;;;;6.27;3.53;;;2.20;99.90;;;;;;2035232;28;20234;-81
2023/12/05 03:32:28;;;;;;;1.85;1.60;;;2.40;99.90;;;;;;2059588;28;20716;-82
2023/12/05 03:33:28;;;;;;;4.10;2.67;;;2.30;99.90;;;;;;2065725;28;20236;-81
2023/12/05 03:34:29;;;;;;;4.23;3.13;;;2.40;99.90;;;;;;2035276;28;20594;-82
2023/12/05 03:35:30;;;;;;;6.00;3.00;;;2.40;99.90;;;;;;2048746;28;20346;-84
2023/12/05 03:36:31;;;;;;;6.80;3.70;;;2.50;99.90;;;;;;2041225;28;20258;-83
2023/12/05 03:37:32;;;;;;;5.20;3.35;;;2.50;99.90;;;;;;2030542;28;20843;-83
2023/12/05 03:38:32;;;;;;;4.53;2.30;;;2.40;99.90;;;;;;2060278;28;20267;-83
2023/12/05 03:39:33;;;;;;;3.13;2.50;;;2.40;99.90;;;;;;2046252;28;20231;-83
2023/12/05 03:40:34;;;;;;;3.27;2.10;;;2.40;99.90;;;;;;2030939;29;20248;-83
2023/12/05 03:41:34;;;;;;;3.00;2.00;;;2.40;99.90;;;;;;2032417;29;20721;-83
2023/12/05 03:42:35;;;;;;;2.60;1.57;;;2.50;99.90;;;;;;2051858;28;20231;-82
2023/12/05 03:43:38;;;;;;;5.07;2.00;;;2.50;99.90;;;;;;2042411;28;20289;-83
2023/12/05 03:44:38;;;;;;;3.03;2.13;;;2.60;99.90;;;;;;2036290;28;20659;-83
2023/12/05 03:45:39;;;;;;;2.47;1.57;;;2.70;99.90;;;;;;2059746;28;20271;-83
2023/12/05 03:46:40;;;;;;;5.30;2.50;;;2.70;99.90;;;;;;2059634;28;20237;-82
2023/12/05 03:47:40;;;;;;;3.70;2.30;;;2.70;99.90;;;;;;2052428;28;20232;-82
2023/12/05 03:48:41;;;;;;;4.20;2.40;;;2.60;99.90;;;;;;2031752;29;20231;-82
2023/12/05 03:49:41;;;;;;;5.30;3.07;;;2.70;99.90;;;;;;2012418;28;20261;-83
2023/12/05 03:50:42;;;;;;;5.80;3.23;;;2.60;99.90;;;;;;2034553;28;20398;-83
2023/12/05 03:51:43;;;;;;;4.00;2.80;;;2.60;99.90;;;;;;2052036;28;20283;-82
2023/12/05 03:52:44;;;;;;;6.05;3.25;;;2.60;99.90;;;;;;2031055;29;20502;-83
2023/12/05 03:53:44;;;;;;;4.97;3.20;;;2.60;99.90;;;;;;2047695;28;20267;-82
2023/12/05 03:54:45;;;;;;;3.27;2.10;;;2.60;99.90;;;;;;2061139;28;20252;-83
2023/12/05 03:55:46;;;;;;;3.07;1.83;;;2.60;99.90;;;;;;2067599;28;20259;-83
2023/12/05 03:56:46;;;;;;;4.30;3.20;;;2.80;99.90;;;;;;2057511;28;20652;-81
2023/12/05 03:57:47;;;;;;;3.87;2.50;;;2.80;99.90;;;;;;2043890;28;20298;-82
2023/12/05 03:58:48;;;;;;;4.17;2.03;;;2.70;99.90;;;;;;2026121;28;20217;-81
2023/12/05 03:59:49;;;;;;;5.80;2.00;;;2.70;99.90;;;;;;2031234;29;20204;-82
2023/12/05 04:00:50;;;;;;;3.08;1.90;;;2.70;99.90;;;;;;2039405;28;20842;-82
2023/12/05 04:01:50;;;;;;;2.07;1.27;;;2.70;99.90;;;;;;2042260;28;20175;-83
2023/12/05 04:02:51;;;;;;;1.47;0.80;;;2.80;99.90;;;;;;2062243;28;20236;-82
2023/12/05 04:03:52;;;;;;;1.27;0.93;;;2.80;99.90;;;;;;2034176;29;20717;-82
2023/12/05 04:04:52;;;;;;;1.27;1.17;;;2.90;99.90;;;;;;2061255;28;20241;-82
2023/12/05 04:05:53;;;;;;;1.20;0.80;;;2.90;99.90;;;;;;2052874;28;20247;-82
2023/12/05 04:06:54;;;;;;;2.43;1.13;;;3.00;99.90;;;;;;2061916;28;20195;-82
2023/12/05 04:07:54;;;;;;;1.40;0.70;;;3.00;99.90;;;;;;2064586;28;20194;-84
2023/12/05 04:08:55;;;;;;;1.07;0.80;;;3.00;99.90;;;;;;2042680;28;20194;-82
2023/12/05 04:09:56;;;;;;;1.80;0.80;;;3.00;99.90;;;;;;2043268;28;20753;-82
2023/12/05 04:10:56;;;;;;;1.37;0.80;;;3.10;99.90;;;;;;2050170;28;20203;-82
2023/12/05 04:11:57;;;;;;;1.00;0.83;;;3.10;99.90;;;;;;2042637;28;20259;-81
2023/12/05 04:12:58;;;;;;;3.60;0.68;;;3.20;99.90;;;;;;2020812;28;20221;-82
2023/12/05 04:14:00;;;;;;;3.20;1.40;;;3.10;99.90;;;;;;2029841;28;20235;-82
2023/12/05 04:15:01;;;;;;;1.38;0.88;;;3.10;99.90;;;;;;2060267;28;20208;-82
2023/12/05 04:16:01;;;;;;;2.90;1.27;;;3.20;99.90;;;;;;2041335;28;20197;-82
2023/12/05 04:17:03;;;;;;;2.47;0.87;;;3.20;99.90;;;;;;2066580;28;20227;-82
2023/12/05 04:18:04;;;;;;;5.57;1.05;;;3.20;99.90;;;;;;2058114;28;20250;-81
2023/12/05 04:19:04;;;;;;;0.97;0.80;;;3.20;99.90;;;;;;2062329;28;20679;-82
2023/12/05 04:20:07;;;;;;;3.23;0.90;;;3.30;99.90;;;;;;2059038;28;20194;-81
2023/12/05 04:21:08;;;;;;;3.97;0.95;;;3.20;99.90;;;;;;2068099;28;20268;-81
2023/12/05 04:22:09;;;;;;;1.65;0.85;;;3.20;99.90;;;;;;2041623;28;20314;-81
2023/12/05 04:23:10;;;;;;;3.43;1.10;;;3.20;99.90;;;;;;2044441;28;20278;-82
2023/12/05 04:24:10;;;;;;;4.97;2.13;;;3.20;99.90;;;;;;2050800;28;20223;-83
2023/12/05 04:25:11;;;;;;;1.77;1.30;;;3.10;99.90;;;;;;2085380;28;20228;-82
2023/12/05 04:26:17;;;;;;;2.50;0.90;;;3.20;99.90;;;;;;2074196;28;20295;-81
2023/12/05 04:27:18;;;;;;;3.20;1.23;;;3.30;99.90;;;;;;2080919;28;20228;-83
2023/12/05 04:28:19;;;;;;;1.23;1.00;;;3.30;99.90;;;;;;2070283;28;20295;-84
2023/12/05 04:29:20;;;;;;;0.97;0.87;;;3.20;99.90;;;;;;2060046;28;20225;-83
2023/12/05 04:30:20;;;;;;;1.30;0.80;;;3.30;99.90;;;;;;2061828;28;20225;-83
2023/12/05 04:31:25;;;;;;;6.67;0.90;;;3.30;99.90;;;;;;2066635;28;20267;-84
2023/12/05 04:32:26;;;;;;;1.45;1.00;;;3.30;99.90;;;;;;2038368;29;20228;-83
2023/12/05 04:33:27;;;;;;;0.90;0.77;;;3.20;99.90;;;;;;2033101;28;20224;-84
2023/12/05 04:34:28;;;;;;;1.70;1.00;;;3.20;99.90;;;;;;2031190;28;20237;-83
2023/12/05 04:35:28;;;;;;;1.77;1.10;;;3.20;99.90;;;;;;2058817;28;20354;-82
2023/12/05 04:36:29;;;;;;;2.93;1.10;;;3.20;99.90;;;;;;2055900;28;20729;-82
2023/12/05 04:37:30;;;;;;;2.10;0.90;;;3.20;99.90;;;;;;2066928;28;20236;-83
2023/12/05 04:38:32;;;;;;;3.30;1.10;;;3.20;99.90;;;;;;2058736;28;20253;-83
2023/12/05 04:39:33;;;;;;;1.25;0.80;;;3.20;99.90;;;;;;2067332;28;20255;-83
2023/12/05 04:40:34;;;;;;;2.10;0.90;;;3.20;99.90;;;;;;2058797;28;20233;-83
2023/12/05 04:41:35;;;;;;;2.97;0.97;;;3.20;99.90;;;;;;2058865;28;20238;-82
2023/12/05 04:42:37;;;;;;;3.38;1.00;;;3.20;99.90;;;;;;2049344;28;20229;-82
2023/12/05 04:43:37;;;;;;;1.70;0.80;;;3.20;99.90;;;;;;2041525;28;20721;-83
2023/12/05 04:44:38;;;;;;;1.27;0.93;;;3.30;99.90;;;;;;2045863;28;20275;-81
2023/12/05 04:45:40;;;;;;;1.73;0.70;;;3.30;99.90;;;;;;2067205;28;20236;-83
2023/12/05 04:46:40;;;;;;;2.03;0.80;;;3.30;99.90;;;;;;2067551;28;20231;-82
2023/12/05 04:47:41;;;;;;;14.57;7.30;;;3.30;99.90;;;;;;2039189;28;20476;-83
2023/12/05 04:48:42;;;;;;;5.50;2.27;;;3.30;99.90;;;;;;2031667;28;20230;-83
2023/12/05 04:49:42;;;;;;;1.87;0.93;;;3.30;99.90;;;;;;2047055;28;20780;-82
2023/12/05 04:50:44;;;;;;;0.73;0.60;;;3.30;99.90;;;;;;2038010;28;20319;-83
2023/12/05 04:51:44;;;;;;;2.03;0.90;;;3.30;99.90;;;;;;2034873;29;20228;-82
2023/12/05 04:52:45;;;;;;;1.00;0.90;;;3.30;99.90;;;;;;2038644;29;20228;-83
2023/12/05 04:53:46;;;;;;;1.43;0.80;;;3.30;99.90;;;;;;2038753;29;20705;-83
2023/12/05 04:54:46;;;;;;;1.50;1.00;;;3.30;99.90;;;;;;2029837;29;20220;-80
2023/12/05 04:55:47;;;;;;;1.00;0.80;;;3.30;99.90;;;;;;2048182;28;20232;-83
2023/12/05 04:56:48;;;;;;;0.70;0.67;;;3.20;99.90;;;;;;2073835;28;20188;-82
2023/12/05 04:57:48;;;;;;;0.90;0.80;;;3.20;99.90;;;;;;2071990;28;20194;-83
2023/12/05 04:58:49;;;;;;;1.57;1.07;;;3.20;99.90;;;;;;2030952;29;20219;-84
2023/12/05 04:59:50;;;;;;;4.80;0.93;;;3.40;99.90;;;;;;2044830;28;20197;-83
2023/12/05 05:00:50;;;;;;;0.73;0.60;;;3.30;99.90;;;;;;2051599;28;20190;-83
2023/12/05 05:01:53;;;;;;;2.83;0.80;;;3.40;99.90;;;;;;2047217;28;20661;-82
2023/12/05 05:02:53;;;;;;;0.60;0.60;;;3.30;99.90;;;;;;2040864;28;20805;-82
2023/12/05 05:03:54;;;;;;;0.87;0.70;;;3.30;99.90;;;;;;2030618;29;20209;-81
2023/12/05 05:04:55;;;;;;;5.67;0.87;;;3.40;99.90;;;;;;2063715;28;20667;-83
2023/12/05 05:05:55;;;;;;;0.90;0.80;;;3.40;99.90;;;;;;2066022;28;20190;-83
2023/12/05 05:06:56;;;;;;;1.50;0.70;;;3.30;99.90;;;;;;2075104;28;20201;-81
2023/12/05 05:07:57;;;;;;;0.83;0.70;;;3.30;99.90;;;;;;2076119;28;20189;-81
2023/12/05 05:08:57;;;;;;;2.30;0.93;;;3.30;99.90;;;;;;2059899;28;20214;-83
2023/12/05 05:09:58;;;;;;;1.03;0.70;;;3.40;99.90;;;;;;2020068;28;20613;-82
2023/12/05 05:10:59;;;;;;;1.07;0.80;;;3.30;99.90;;;;;;2021954;29;20204;-82
2023/12/05 05:12:00;;;;;;;4.03;0.80;;;3.30;99.90;;;;;;2050942;28;20214;-82
2023/12/05 05:13:00;;;;;;;2.27;1.30;;;3.40;99.90;;;;;;2045692;28;20216;-81
2023/12/05 05:14:01;;;;;;;2.20;1.00;;;3.40;99.90;;;;;;2022352;28;20194;-83
2023/12/05 05:15:02;;;;;;;0.87;0.60;;;3.40;99.90;;;;;;2030207;28;20193;-84
2023/12/05 05:16:03;;;;;;;0.80;0.70;;;3.40;99.90;;;;;;2050075;28;20222;-83
2023/12/05 05:17:07;;;;;;;0.82;0.80;;;3.40;99.90;;;;;;2036854;28;20216;-84
2023/12/05 05:18:07;;;;;;;2.03;0.80;;;3.40;99.90;;;;;;2023519;29;20246;-83
2023/12/05 05:19:08;;;;;;;4.57;0.83;;;3.40;99.90;;;;;;2025738;28;20241;-82
2023/12/05 05:20:09;;;;;;;1.20;0.80;;;3.30;99.90;;;;;;2070051;28;20228;-81
2023/12/05 05:21:11;;;;;;;2.28;0.90;;;3.30;99.90;;;;;;2058362;28;20228;-82
2023/12/05 05:22:12;;;;;;;0.98;0.50;;;3.30;99.90;;;;;;2050029;28;20290;-82
2023/12/05 05:23:13;;;;;;;0.90;0.70;;;3.30;99.90;;;;;;2053774;28;20276;-82
2023/12/05 05:24:13;;;;;;;0.77;0.40;;;3.20;99.90;;;;;;2027925;28;20331;-81
2023/12/05 05:25:15;;;;;;;0.83;0.60;;;3.30;99.90;;;;;;2030598;28;20241;-83
2023/12/05 05:26:15;;;;;;;2.38;0.80;;;3.30;99.90;;;;;;2056744;28;20244;-83